LAN890 SLVR-SCEL
Flight info
| Callsign | LAN890 |
|---|---|
| Flight time | N/A |
| Altitude | 36000 |
| Route | IRESU UL322 ASIMO ASIMO7D |
| Aircraft | A320/M-SDE3FGHIRWY/LB1 |
Departure
| Time | 2026-04-27 00:05 |
|---|---|
| Airport | Viru Viru International Airport (SLVR) |
Arrival
| Time | N/A |
|---|---|
| Airport | Comodoro Arturo Merino Benítez International Airport (SCEL) |
| Time | Latitude | Longitude | Altitude | Speed | Heading |
|---|---|---|---|---|---|
| 2026-04-26 23:02 | -17.64764 | -63.13976 | 1231 ft | 0 kts | 237° |
| 2026-04-26 23:55 | -17.64753 | -63.13957 | 1231 ft | 4 kts | 237° |
| 2026-04-26 23:55 | -17.64741 | -63.13938 | 1231 ft | 4 kts | 243° |
| 2026-04-26 23:55 | -17.64732 | -63.13912 | 1231 ft | 4 kts | 267° |
| 2026-04-26 23:55 | -17.64738 | -63.13889 | 1231 ft | 3 kts | 326° |
| 2026-04-26 23:56 | -17.64740 | -63.13887 | 1231 ft | 0 kts | 329° |
| 2026-04-27 00:00 | -17.64732 | -63.13892 | 1231 ft | 6 kts | 329° |
| 2026-04-27 00:00 | -17.64659 | -63.13937 | 1231 ft | 14 kts | 328° |
| 2026-04-27 00:00 | -17.64583 | -63.13990 | 1231 ft | 12 kts | 325° |
| 2026-04-27 00:01 | -17.64506 | -63.14007 | 1231 ft | 13 kts | 30° |
| 2026-04-27 00:01 | -17.64443 | -63.13929 | 1231 ft | 15 kts | 55° |
| 2026-04-27 00:01 | -17.64359 | -63.13861 | 1231 ft | 17 kts | 354° |
| 2026-04-27 00:01 | -17.64249 | -63.13927 | 1231 ft | 20 kts | 328° |
| 2026-04-27 00:02 | -17.64126 | -63.14007 | 1231 ft | 22 kts | 328° |
| 2026-04-27 00:02 | -17.63987 | -63.14082 | 1231 ft | 20 kts | 6° |
| 2026-04-27 00:02 | -17.63885 | -63.13978 | 1228 ft | 22 kts | 32° |
| 2026-04-27 00:02 | -17.63747 | -63.14026 | 1228 ft | 23 kts | 327° |
| 2026-04-27 00:03 | -17.63606 | -63.14120 | 1230 ft | 25 kts | 328° |
| 2026-04-27 00:03 | -17.63452 | -63.14224 | 1230 ft | 27 kts | 327° |
| 2026-04-27 00:03 | -17.63377 | -63.14276 | 1231 ft | 28 kts | 327° |
| 2026-04-27 00:03 | -17.63234 | -63.14384 | 1229 ft | 23 kts | 301° |
| 2026-04-27 00:04 | -17.63180 | -63.14423 | 1229 ft | 10 kts | 65° |
| 2026-04-27 00:04 | -17.63221 | -63.14379 | 1229 ft | 0 kts | 146° |
| 2026-04-27 00:04 | -17.63228 | -63.14374 | 1229 ft | 3 kts | 146° |
| 2026-04-27 00:04 | -17.63378 | -63.14270 | 1231 ft | 61 kts | 147° |
| 2026-04-27 00:05 | -17.63924 | -63.13908 | 1229 ft | 123 kts | 147° |
| 2026-04-27 00:05 | -17.64786 | -63.13326 | 1241 ft | 170 kts | 147° |
| 2026-04-27 00:05 | -17.65842 | -63.12654 | 1675 ft | 180 kts | 152° |
| 2026-04-27 00:05 | -17.66978 | -63.12023 | 2209 ft | 189 kts | 153° |
| 2026-04-27 00:06 | -17.68185 | -63.11384 | 2671 ft | 204 kts | 153° |
| 2026-04-27 00:06 | -17.69483 | -63.10664 | 3015 ft | 218 kts | 152° |
| 2026-04-27 00:06 | -17.70886 | -63.09889 | 3241 ft | 240 kts | 153° |
| 2026-04-27 00:06 | -17.72445 | -63.09039 | 3510 ft | 264 kts | 153° |
| 2026-04-27 00:07 | -17.74138 | -63.08129 | 3920 ft | 282 kts | 153° |
| 2026-04-27 00:07 | -17.75939 | -63.07175 | 4417 ft | 298 kts | 154° |
| 2026-04-27 00:07 | -17.77797 | -63.06175 | 5232 ft | 297 kts | 153° |
| 2026-04-27 00:07 | -17.78230 | -63.05932 | 5443 ft | 297 kts | 153° |
| 2026-04-27 00:08 | -17.78612 | -63.05717 | 5606 ft | 298 kts | 152° |
| 2026-04-27 00:08 | -17.80047 | -63.04896 | 6242 ft | 299 kts | 152° |
| 2026-04-27 00:09 | -17.81357 | -63.04143 | 6757 ft | 302 kts | 152° |
| 2026-04-27 00:09 | -17.83212 | -63.03082 | 7448 ft | 305 kts | 152° |
| 2026-04-27 00:09 | -17.85105 | -63.02009 | 8151 ft | 309 kts | 152° |
| 2026-04-27 00:09 | -17.87012 | -63.00938 | 8847 ft | 313 kts | 152° |
| 2026-04-27 00:10 | -17.88945 | -62.99860 | 9533 ft | 316 kts | 152° |
| 2026-04-27 00:10 | -17.89946 | -62.99303 | 9880 ft | 318 kts | 152° |
| 2026-04-27 00:10 | -17.90928 | -62.98758 | 10117 ft | 325 kts | 153° |
| 2026-04-27 00:10 | -17.93000 | -62.97613 | 10239 ft | 348 kts | 153° |
| 2026-04-27 00:11 | -17.95198 | -62.96400 | 10505 ft | 364 kts | 153° |
| 2026-04-27 00:11 | -17.95464 | -62.96253 | 10556 ft | 365 kts | 153° |
| 2026-04-27 00:11 | -17.96962 | -62.95426 | 10911 ft | 368 kts | 153° |
| 2026-04-27 00:12 | -17.98208 | -62.94736 | 11243 ft | 369 kts | 153° |
| 2026-04-27 00:12 | -18.00485 | -62.93473 | 11865 ft | 371 kts | 153° |
| 2026-04-27 00:12 | -18.01639 | -62.92831 | 12193 ft | 371 kts | 153° |
| 2026-04-27 00:12 | -18.02221 | -62.92508 | 12361 ft | 372 kts | 153° |
| 2026-04-27 00:13 | -18.04513 | -62.91232 | 12977 ft | 374 kts | 153° |
| 2026-04-27 00:13 | -18.06818 | -62.89948 | 13574 ft | 376 kts | 153° |
| 2026-04-27 00:13 | -18.09240 | -62.88950 | 14161 ft | 374 kts | 167° |
| 2026-04-27 00:13 | -18.11784 | -62.88647 | 14699 ft | 372 kts | 183° |
| 2026-04-27 00:14 | -18.14332 | -62.89051 | 15192 ft | 372 kts | 198° |
| 2026-04-27 00:14 | -18.16696 | -62.90154 | 15649 ft | 372 kts | 213° |
| 2026-04-27 00:14 | -18.18748 | -62.91818 | 16139 ft | 373 kts | 221° |
| 2026-04-27 00:14 | -18.20742 | -62.93586 | 16620 ft | 376 kts | 221° |
| 2026-04-27 00:15 | -18.22746 | -62.95352 | 17109 ft | 378 kts | 221° |
| 2026-04-27 00:15 | -18.24772 | -62.97131 | 17575 ft | 380 kts | 221° |
| 2026-04-27 00:15 | -18.26813 | -62.98920 | 18042 ft | 383 kts | 221° |
| 2026-04-27 00:15 | -18.28867 | -63.00724 | 18491 ft | 386 kts | 221° |
| 2026-04-27 00:16 | -18.30931 | -63.02543 | 18902 ft | 388 kts | 221° |
| 2026-04-27 00:16 | -18.33009 | -63.04377 | 19300 ft | 391 kts | 221° |
| 2026-04-27 00:16 | -18.35102 | -63.06229 | 19712 ft | 394 kts | 221° |
| 2026-04-27 00:16 | -18.37211 | -63.08092 | 20127 ft | 396 kts | 221° |
| 2026-04-27 00:17 | -18.39304 | -63.09943 | 20531 ft | 399 kts | 221° |
| 2026-04-27 00:17 | -18.41433 | -63.11826 | 20948 ft | 402 kts | 221° |
| 2026-04-27 00:17 | -18.43584 | -63.13725 | 21383 ft | 404 kts | 221° |
| 2026-04-27 00:17 | -18.45746 | -63.15635 | 21799 ft | 407 kts | 221° |
| 2026-04-27 00:18 | -18.47921 | -63.17556 | 22197 ft | 410 kts | 221° |
| 2026-04-27 00:18 | -18.50111 | -63.19490 | 22581 ft | 413 kts | 221° |
| 2026-04-27 00:18 | -18.52321 | -63.21446 | 22964 ft | 416 kts | 221° |
| 2026-04-27 00:18 | -18.54539 | -63.23410 | 23335 ft | 419 kts | 221° |
| 2026-04-27 00:19 | -18.56778 | -63.25390 | 23685 ft | 421 kts | 221° |
| 2026-04-27 00:19 | -18.59029 | -63.27382 | 23994 ft | 424 kts | 221° |
| 2026-04-27 00:19 | -18.61290 | -63.29389 | 24308 ft | 426 kts | 221° |
| 2026-04-27 00:19 | -18.63561 | -63.31406 | 24624 ft | 428 kts | 221° |
| 2026-04-27 00:20 | -18.65843 | -63.33431 | 24936 ft | 430 kts | 221° |
| 2026-04-27 00:20 | -18.68138 | -63.35462 | 25244 ft | 431 kts | 221° |
| 2026-04-27 00:20 | -18.70440 | -63.37501 | 25551 ft | 433 kts | 221° |
| 2026-04-27 00:20 | -18.72754 | -63.39555 | 25847 ft | 435 kts | 221° |
| 2026-04-27 00:21 | -18.74288 | -63.40917 | 26047 ft | 436 kts | 221° |
| 2026-04-27 00:21 | -18.76614 | -63.42984 | 26326 ft | 438 kts | 221° |
| 2026-04-27 00:21 | -18.78944 | -63.45055 | 26621 ft | 439 kts | 221° |
| 2026-04-27 00:21 | -18.81284 | -63.47138 | 26905 ft | 441 kts | 221° |
| 2026-04-27 00:22 | -18.83632 | -63.49230 | 27198 ft | 442 kts | 221° |
| 2026-04-27 00:22 | -18.85989 | -63.51329 | 27471 ft | 444 kts | 221° |
| 2026-04-27 00:22 | -18.88363 | -63.53430 | 27743 ft | 446 kts | 219° |
| 2026-04-27 00:22 | -18.90942 | -63.55263 | 28002 ft | 449 kts | 209° |
| 2026-04-27 00:23 | -18.93791 | -63.56616 | 28262 ft | 452 kts | 200° |
| 2026-04-27 00:23 | -18.96806 | -63.57580 | 28514 ft | 454 kts | 197° |
| 2026-04-27 00:23 | -18.99839 | -63.58525 | 28761 ft | 455 kts | 197° |
| 2026-04-27 00:23 | -19.02882 | -63.59484 | 29006 ft | 457 kts | 198° |
| 2026-04-27 00:24 | -19.05931 | -63.60452 | 29244 ft | 458 kts | 198° |
| 2026-04-27 00:24 | -19.08994 | -63.61428 | 29482 ft | 460 kts | 198° |
| 2026-04-27 00:24 | -19.12058 | -63.62403 | 29728 ft | 461 kts | 198° |
| 2026-04-27 00:24 | -19.15137 | -63.63377 | 29961 ft | 462 kts | 198° |
| 2026-04-27 00:25 | -19.18231 | -63.64354 | 30166 ft | 464 kts | 198° |
| 2026-04-27 00:25 | -19.21324 | -63.65330 | 30342 ft | 465 kts | 198° |
| 2026-04-27 00:25 | -19.24397 | -63.66300 | 30517 ft | 467 kts | 198° |
| 2026-04-27 00:25 | -19.27508 | -63.67283 | 30748 ft | 466 kts | 198° |
| 2026-04-27 00:26 | -19.30614 | -63.68265 | 31007 ft | 465 kts | 198° |
| 2026-04-27 00:26 | -19.33716 | -63.69248 | 31256 ft | 465 kts | 198° |
| 2026-04-27 00:26 | -19.36814 | -63.70229 | 31505 ft | 464 kts | 198° |
| 2026-04-27 00:26 | -19.39904 | -63.71210 | 31739 ft | 464 kts | 198° |
| 2026-04-27 00:27 | -19.42996 | -63.72194 | 31988 ft | 464 kts | 198° |
| 2026-04-27 00:27 | -19.46084 | -63.73174 | 32261 ft | 463 kts | 198° |
| 2026-04-27 00:27 | -19.49167 | -63.74154 | 32531 ft | 462 kts | 198° |
| 2026-04-27 00:27 | -19.52246 | -63.75134 | 32787 ft | 462 kts | 199° |
| 2026-04-27 00:28 | -19.55322 | -63.76111 | 33049 ft | 461 kts | 199° |
| 2026-04-27 00:28 | -19.58391 | -63.77086 | 33310 ft | 461 kts | 199° |
| 2026-04-27 00:28 | -19.61466 | -63.78062 | 33565 ft | 460 kts | 199° |
| 2026-04-27 00:28 | -19.64535 | -63.79036 | 33820 ft | 460 kts | 199° |
| 2026-04-27 00:29 | -19.67603 | -63.80009 | 34071 ft | 460 kts | 199° |
| 2026-04-27 00:29 | -19.70661 | -63.80978 | 34298 ft | 459 kts | 199° |
| 2026-04-27 00:29 | -19.73725 | -63.81954 | 34527 ft | 458 kts | 199° |
| 2026-04-27 00:29 | -19.76776 | -63.82925 | 34789 ft | 457 kts | 199° |
| 2026-04-27 00:30 | -19.79807 | -63.83893 | 35069 ft | 454 kts | 199° |
| 2026-04-27 00:30 | -19.82836 | -63.84861 | 35293 ft | 453 kts | 199° |
| 2026-04-27 00:30 | -19.85850 | -63.85824 | 35504 ft | 453 kts | 199° |
| 2026-04-27 00:30 | -19.88868 | -63.86790 | 35717 ft | 452 kts | 199° |
| 2026-04-27 00:31 | -19.91840 | -63.87740 | 35902 ft | 451 kts | 200° |
| 2026-04-27 00:31 | -19.94852 | -63.88700 | 36030 ft | 451 kts | 199° |
| 2026-04-27 00:31 | -20.00848 | -63.90598 | 36063 ft | 448 kts | 199° |
| 2026-04-27 00:32 | -20.06834 | -63.92490 | 36065 ft | 448 kts | 199° |
| 2026-04-27 00:32 | -20.12808 | -63.94391 | 36069 ft | 448 kts | 199° |
| 2026-04-27 00:33 | -20.18780 | -63.96298 | 36073 ft | 448 kts | 199° |
| 2026-04-27 00:33 | -20.24748 | -63.98189 | 36076 ft | 448 kts | 199° |
| 2026-04-27 00:34 | -20.30653 | -64.00064 | 36088 ft | 448 kts | 199° |
| 2026-04-27 00:34 | -20.31995 | -64.00491 | 36092 ft | 448 kts | 199° |
| 2026-04-27 00:35 | -20.37981 | -64.02396 | 36091 ft | 448 kts | 199° |
| 2026-04-27 00:35 | -20.43956 | -64.04299 | 36109 ft | 448 kts | 200° |
| 2026-04-27 00:36 | -20.49923 | -64.06203 | 36107 ft | 447 kts | 200° |
| 2026-04-27 00:36 | -20.55882 | -64.08106 | 36102 ft | 447 kts | 200° |
| 2026-04-27 00:37 | -20.61834 | -64.10007 | 36101 ft | 446 kts | 200° |
| 2026-04-27 00:37 | -20.67755 | -64.11891 | 36104 ft | 446 kts | 200° |
| 2026-04-27 00:38 | -20.73711 | -64.13787 | 36118 ft | 446 kts | 200° |
| 2026-04-27 00:38 | -20.79656 | -64.15682 | 36108 ft | 445 kts | 200° |
| 2026-04-27 00:39 | -20.85601 | -64.17572 | 36105 ft | 445 kts | 200° |
| 2026-04-27 00:39 | -20.89630 | -64.18847 | 36097 ft | 445 kts | 200° |
| 2026-04-27 00:40 | -20.95200 | -64.20613 | 36107 ft | 445 kts | 200° |
| 2026-04-27 00:40 | -20.98706 | -64.21725 | 36090 ft | 444 kts | 200° |
| 2026-04-27 00:41 | -21.04595 | -64.23614 | 36121 ft | 445 kts | 200° |
| 2026-04-27 00:41 | -21.07487 | -64.24540 | 36117 ft | 445 kts | 200° |
| 2026-04-27 00:42 | -21.13421 | -64.26432 | 36114 ft | 444 kts | 200° |
| 2026-04-27 00:42 | -21.19371 | -64.28319 | 36122 ft | 445 kts | 200° |
| 2026-04-27 00:43 | -21.22136 | -64.29199 | 36123 ft | 444 kts | 200° |
| 2026-04-27 00:43 | -21.27528 | -64.30924 | 36124 ft | 444 kts | 200° |
| 2026-04-27 00:44 | -21.33440 | -64.32821 | 36133 ft | 443 kts | 201° |
| 2026-04-27 00:44 | -21.39360 | -64.34717 | 36128 ft | 444 kts | 201° |
| 2026-04-27 00:45 | -21.45290 | -64.36590 | 36133 ft | 444 kts | 201° |
| 2026-04-27 00:45 | -21.51219 | -64.38455 | 36135 ft | 444 kts | 201° |
| 2026-04-27 00:46 | -21.57161 | -64.40332 | 36130 ft | 445 kts | 201° |
| 2026-04-27 00:46 | -21.63094 | -64.42220 | 36136 ft | 444 kts | 201° |
| 2026-04-27 00:47 | -21.69026 | -64.44104 | 36146 ft | 444 kts | 201° |
| 2026-04-27 00:47 | -21.74946 | -64.45979 | 36138 ft | 443 kts | 201° |
| 2026-04-27 00:48 | -21.80861 | -64.47866 | 36131 ft | 443 kts | 201° |
| 2026-04-27 00:48 | -21.86736 | -64.49734 | 36143 ft | 443 kts | 201° |
| 2026-04-27 00:49 | -21.92646 | -64.51611 | 36139 ft | 442 kts | 201° |
| 2026-04-27 00:49 | -21.98557 | -64.53499 | 36155 ft | 442 kts | 202° |
| 2026-04-27 00:50 | -22.07408 | -64.56327 | 36153 ft | 442 kts | 201° |
| 2026-04-27 00:51 | -22.13285 | -64.58207 | 36128 ft | 440 kts | 201° |
| 2026-04-27 00:51 | -22.19157 | -64.60085 | 36106 ft | 439 kts | 202° |
| 2026-04-27 00:52 | -22.25006 | -64.61965 | 36119 ft | 440 kts | 202° |
| 2026-04-27 00:52 | -22.30882 | -64.63875 | 36132 ft | 440 kts | 202° |
| 2026-04-27 00:53 | -22.36745 | -64.65798 | 36133 ft | 439 kts | 202° |
| 2026-04-27 00:53 | -22.42615 | -64.67717 | 36141 ft | 440 kts | 202° |
| 2026-04-27 00:54 | -22.48477 | -64.69620 | 36137 ft | 440 kts | 202° |
| 2026-04-27 00:54 | -22.54337 | -64.71536 | 36125 ft | 439 kts | 202° |
| 2026-04-27 00:55 | -22.60158 | -64.73444 | 36144 ft | 439 kts | 202° |
| 2026-04-27 00:55 | -22.66019 | -64.75362 | 36133 ft | 440 kts | 202° |
| 2026-04-27 00:56 | -22.71889 | -64.77281 | 36124 ft | 441 kts | 202° |
| 2026-04-27 00:56 | -22.77763 | -64.79205 | 36127 ft | 441 kts | 203° |
| 2026-04-27 00:57 | -22.83641 | -64.81134 | 36115 ft | 441 kts | 202° |
| 2026-04-27 00:57 | -22.89527 | -64.83072 | 36123 ft | 441 kts | 203° |
| 2026-04-27 00:58 | -22.95366 | -64.84996 | 36143 ft | 441 kts | 203° |
| 2026-04-27 00:58 | -23.01247 | -64.86924 | 36125 ft | 441 kts | 203° |
| 2026-04-27 00:59 | -23.07115 | -64.88847 | 36129 ft | 440 kts | 203° |
| 2026-04-27 00:59 | -23.12991 | -64.90784 | 36129 ft | 441 kts | 203° |
| 2026-04-27 01:00 | -23.18820 | -64.92714 | 36126 ft | 441 kts | 203° |
| 2026-04-27 01:00 | -23.24704 | -64.94658 | 36129 ft | 441 kts | 203° |
| 2026-04-27 01:01 | -23.30569 | -64.96598 | 36132 ft | 441 kts | 203° |
| 2026-04-27 01:01 | -23.36445 | -64.98539 | 36153 ft | 441 kts | 203° |
| 2026-04-27 01:02 | -23.42320 | -65.00485 | 36141 ft | 440 kts | 203° |
| 2026-04-27 01:02 | -23.48173 | -65.02422 | 36143 ft | 439 kts | 203° |
| 2026-04-27 01:03 | -23.53972 | -65.04341 | 36155 ft | 437 kts | 204° |
| 2026-04-27 01:03 | -23.59797 | -65.06276 | 36152 ft | 437 kts | 204° |
| 2026-04-27 01:04 | -23.65618 | -65.08215 | 36157 ft | 436 kts | 204° |
| 2026-04-27 01:04 | -23.71398 | -65.10139 | 36137 ft | 435 kts | 204° |
| 2026-04-27 01:05 | -23.77199 | -65.12070 | 36143 ft | 436 kts | 204° |
| 2026-04-27 01:05 | -23.83004 | -65.13999 | 36165 ft | 436 kts | 204° |
| 2026-04-27 01:06 | -23.88793 | -65.15931 | 36136 ft | 435 kts | 205° |
| 2026-04-27 01:06 | -23.94571 | -65.17871 | 36134 ft | 435 kts | 204° |
| 2026-04-27 01:07 | -24.00362 | -65.19804 | 36140 ft | 435 kts | 204° |
| 2026-04-27 01:07 | -24.06160 | -65.21742 | 36129 ft | 435 kts | 204° |
| 2026-04-27 01:08 | -24.11921 | -65.23672 | 36151 ft | 435 kts | 204° |
| 2026-04-27 01:08 | -24.17709 | -65.25612 | 36177 ft | 435 kts | 205° |
| 2026-04-27 01:09 | -24.22523 | -65.27223 | 36180 ft | 434 kts | 205° |
| 2026-04-27 01:09 | -24.29235 | -65.29479 | 36174 ft | 433 kts | 205° |
| 2026-04-27 01:10 | -24.34026 | -65.31098 | 36179 ft | 432 kts | 205° |
| 2026-04-27 01:10 | -24.39778 | -65.33035 | 36172 ft | 432 kts | 205° |
| 2026-04-27 01:11 | -24.45525 | -65.34956 | 36189 ft | 431 kts | 206° |
| 2026-04-27 01:11 | -24.51273 | -65.36895 | 36179 ft | 431 kts | 206° |
| 2026-04-27 01:12 | -24.57003 | -65.38837 | 36177 ft | 431 kts | 206° |
| 2026-04-27 01:12 | -24.62731 | -65.40779 | 36192 ft | 431 kts | 206° |
| 2026-04-27 01:13 | -24.68462 | -65.42713 | 36197 ft | 430 kts | 205° |
| 2026-04-27 01:13 | -24.74142 | -65.44629 | 36204 ft | 429 kts | 206° |
| 2026-04-27 01:14 | -24.79858 | -65.46565 | 36223 ft | 429 kts | 206° |
| 2026-04-27 01:14 | -24.85499 | -65.48657 | 36212 ft | 420 kts | 214° |
| 2026-04-27 01:15 | -24.90527 | -65.51771 | 36207 ft | 413 kts | 219° |
| 2026-04-27 01:15 | -24.95498 | -65.54952 | 36197 ft | 414 kts | 219° |
| 2026-04-27 01:16 | -25.00486 | -65.58128 | 36187 ft | 414 kts | 219° |
| 2026-04-27 01:16 | -25.05473 | -65.61305 | 36177 ft | 414 kts | 219° |
| 2026-04-27 01:17 | -25.10411 | -65.64463 | 36194 ft | 411 kts | 219° |
| 2026-04-27 01:17 | -25.15349 | -65.67624 | 36190 ft | 410 kts | 219° |
| 2026-04-27 01:18 | -25.20287 | -65.70795 | 36184 ft | 410 kts | 219° |
| 2026-04-27 01:18 | -25.25220 | -65.73970 | 36173 ft | 410 kts | 219° |
| 2026-04-27 01:19 | -25.30154 | -65.77141 | 36181 ft | 410 kts | 219° |
| 2026-04-27 01:19 | -25.35088 | -65.80314 | 36169 ft | 409 kts | 220° |
| 2026-04-27 01:20 | -25.40012 | -65.83490 | 36170 ft | 408 kts | 220° |
| 2026-04-27 01:20 | -25.44871 | -65.86616 | 36171 ft | 406 kts | 220° |
| 2026-04-27 01:21 | -25.49745 | -65.89759 | 36168 ft | 404 kts | 220° |
| 2026-04-27 01:21 | -25.54622 | -65.92908 | 36164 ft | 406 kts | 220° |
| 2026-04-27 01:22 | -25.59489 | -65.96055 | 36201 ft | 405 kts | 220° |
| 2026-04-27 01:22 | -25.64334 | -65.99197 | 36162 ft | 400 kts | 220° |
| 2026-04-27 01:23 | -25.69157 | -66.02313 | 36182 ft | 402 kts | 220° |
| 2026-04-27 01:23 | -25.73954 | -66.05408 | 36180 ft | 399 kts | 220° |
| 2026-04-27 01:24 | -25.78737 | -66.08513 | 36188 ft | 398 kts | 221° |
| 2026-04-27 01:24 | -25.83512 | -66.11621 | 36184 ft | 397 kts | 221° |
| 2026-04-27 01:25 | -25.88297 | -66.14731 | 36202 ft | 398 kts | 220° |
| 2026-04-27 01:25 | -25.93051 | -66.17819 | 36208 ft | 398 kts | 220° |
| 2026-04-27 01:26 | -25.97824 | -66.20922 | 36199 ft | 397 kts | 220° |
| 2026-04-27 01:26 | -26.02592 | -66.24030 | 36218 ft | 397 kts | 221° |
| 2026-04-27 01:27 | -26.07354 | -66.27134 | 36246 ft | 397 kts | 221° |
| 2026-04-27 01:27 | -26.12137 | -66.30257 | 36239 ft | 397 kts | 221° |
| 2026-04-27 01:28 | -26.16884 | -66.33371 | 36235 ft | 396 kts | 221° |
| 2026-04-27 01:28 | -26.21601 | -66.36470 | 36238 ft | 397 kts | 221° |
| 2026-04-27 01:29 | -26.26366 | -66.39589 | 36246 ft | 397 kts | 221° |
| 2026-04-27 01:29 | -26.31138 | -66.42708 | 36243 ft | 398 kts | 221° |
| 2026-04-27 01:30 | -26.35909 | -66.45833 | 36241 ft | 398 kts | 221° |
| 2026-04-27 01:30 | -26.40688 | -66.48969 | 36236 ft | 397 kts | 221° |
| 2026-04-27 01:31 | -26.45418 | -66.52084 | 36234 ft | 397 kts | 221° |
| 2026-04-27 01:31 | -26.50180 | -66.55223 | 36225 ft | 396 kts | 221° |
| 2026-04-27 01:32 | -26.54925 | -66.58354 | 36206 ft | 397 kts | 221° |
| 2026-04-27 01:32 | -26.59689 | -66.61498 | 36211 ft | 397 kts | 221° |
| 2026-04-27 01:33 | -26.64461 | -66.64637 | 36211 ft | 400 kts | 221° |
| 2026-04-27 01:33 | -26.69246 | -66.67790 | 36213 ft | 397 kts | 221° |
| 2026-04-27 01:34 | -26.73958 | -66.70914 | 36219 ft | 395 kts | 221° |
| 2026-04-27 01:34 | -26.78689 | -66.74041 | 36213 ft | 395 kts | 221° |
| 2026-04-27 01:35 | -26.83408 | -66.77170 | 36202 ft | 393 kts | 221° |
| 2026-04-27 01:35 | -26.88109 | -66.80295 | 36209 ft | 393 kts | 222° |
| 2026-04-27 01:36 | -26.92807 | -66.83420 | 36189 ft | 391 kts | 224° |
| 2026-04-27 01:36 | -26.97475 | -66.86516 | 36202 ft | 390 kts | 223° |
| 2026-04-27 01:37 | -27.02154 | -66.89621 | 36186 ft | 392 kts | 221° |
| 2026-04-27 01:37 | -27.06842 | -66.92739 | 36179 ft | 392 kts | 220° |
| 2026-04-27 01:38 | -27.11533 | -66.95873 | 36181 ft | 394 kts | 221° |
| 2026-04-27 01:38 | -27.16242 | -66.99011 | 36161 ft | 393 kts | 222° |
| 2026-04-27 01:39 | -27.20934 | -67.02155 | 36181 ft | 393 kts | 221° |
| 2026-04-27 01:39 | -27.25638 | -67.05304 | 36174 ft | 394 kts | 221° |
| 2026-04-27 01:40 | -27.30352 | -67.08449 | 36184 ft | 394 kts | 222° |
| 2026-04-27 01:40 | -27.35061 | -67.11596 | 36181 ft | 393 kts | 223° |
| 2026-04-27 01:41 | -27.39768 | -67.14764 | 36178 ft | 394 kts | 222° |
| 2026-04-27 01:41 | -27.44473 | -67.17918 | 36174 ft | 393 kts | 221° |
| 2026-04-27 01:42 | -27.49144 | -67.21044 | 36164 ft | 392 kts | 222° |
| 2026-04-27 01:42 | -27.53827 | -67.24157 | 36118 ft | 388 kts | 222° |